createdAt,value
2019-03-21T00:02:20.841Z,15.93
2019-03-21T00:04:51.447Z,18.23
2019-03-21T00:07:21.075Z,16.30
2019-03-21T00:10:14.483Z,18.37
2019-03-21T00:12:44.104Z,15.93
2019-03-21T00:15:27.277Z,18.03
2019-03-21T00:18:01.388Z,16.47
2019-03-21T00:20:30.994Z,20.40
2019-03-21T00:23:00.619Z,15.03
2019-03-21T00:25:30.216Z,15.63
2019-03-21T00:27:59.844Z,12.97
2019-03-21T00:30:29.776Z,14.93
2019-03-21T00:32:59.398Z,17.03
2019-03-21T00:35:29.138Z,14.37
2019-03-21T00:37:58.769Z,12.97
2019-03-21T00:40:40.833Z,10.80
2019-03-21T00:43:12.969Z,10.47
2019-03-21T00:45:42.631Z,14.20
2019-03-21T00:48:16.566Z,9.43
2019-03-21T00:50:46.160Z,11.13
2019-03-21T00:53:15.787Z,10.83
2019-03-21T00:55:52.619Z,13.03
2019-03-21T00:58:22.244Z,10.40
2019-03-21T01:00:59.438Z,12.43
2019-03-21T01:03:29.168Z,13.77
2019-03-21T01:05:58.779Z,14.30
2019-03-21T01:08:28.376Z,13.10
2019-03-21T01:10:58.006Z,17.13
2019-03-21T01:13:32.291Z,13.77
2019-03-21T01:16:02.018Z,13.10
2019-03-21T01:18:31.608Z,17.63
2019-03-21T01:21:01.234Z,13.83
2019-03-21T01:23:30.822Z,13.33
2019-03-21T01:26:07.556Z,9.77
2019-03-21T01:28:37.162Z,13.50
2019-03-21T01:31:06.912Z,13.70
2019-03-21T01:33:36.540Z,9.97
2019-03-21T01:36:08.353Z,14.97
2019-03-21T01:38:37.968Z,11.60
2019-03-21T01:41:14.613Z,12.03
2019-03-21T01:43:44.234Z,9.80
2019-03-21T01:46:18.908Z,11.07
2019-03-21T01:48:48.574Z,18.53
2019-03-21T01:51:18.171Z,10.70
2019-03-21T01:53:47.796Z,9.87
2019-03-21T01:56:17.419Z,11.80
2019-03-21T01:58:47.084Z,7.67
2019-03-21T02:01:16.705Z,11.80
2019-03-21T02:03:46.399Z,9.60
2019-03-21T02:06:16.016Z,11.40
2019-03-21T02:08:45.642Z,11.03
2019-03-21T02:11:15.268Z,13.00
2019-03-21T02:13:44.886Z,9.07
2019-03-21T02:16:14.498Z,15.13
2019-03-21T02:18:44.187Z,10.50
2019-03-21T02:21:13.812Z,13.57
2019-03-21T02:23:43.422Z,10.07
2019-03-21T02:26:13.021Z,13.23
2019-03-21T02:28:42.745Z,9.60
2019-03-21T02:31:12.441Z,15.53
2019-03-21T02:33:46.376Z,9.00
2019-03-21T02:36:15.957Z,12.57
2019-03-21T02:38:45.551Z,8.80
2019-03-21T02:41:17.280Z,14.33
2019-03-21T02:43:46.941Z,14.57
2019-03-21T02:46:16.589Z,12.03
2019-03-21T02:51:37.041Z,10.80
2019-03-21T02:54:06.634Z,10.93
2019-03-21T02:56:36.238Z,12.67
2019-03-21T02:59:05.935Z,10.37
2019-03-21T03:01:35.572Z,10.97
2019-03-21T03:04:05.293Z,8.90
2019-03-21T03:06:34.898Z,12.30
2019-03-21T03:09:06.652Z,7.90
2019-03-21T03:11:36.242Z,6.97
2019-03-21T03:14:06.009Z,8.60
2019-03-21T03:16:35.601Z,9.63
2019-03-21T03:19:05.292Z,16.47
2019-03-21T03:21:34.912Z,11.10
2019-03-21T03:24:05.140Z,9.13
2019-03-21T03:26:34.768Z,11.80
2019-03-21T03:29:04.436Z,14.33
2019-03-21T03:31:34.234Z,8.53
2019-03-21T03:34:04.006Z,9.37
2019-03-21T03:36:33.634Z,12.40
2019-03-21T03:39:04.873Z,14.27
2019-03-21T03:41:34.472Z,11.13
2019-03-21T03:44:04.239Z,19.60
2019-03-21T03:46:33.861Z,10.90
2019-03-21T03:49:03.462Z,10.77
2019-03-21T03:51:33.085Z,6.53
2019-03-21T03:54:02.680Z,10.60
2019-03-21T03:56:32.519Z,12.87
2019-03-21T03:59:08.663Z,9.07
2019-03-21T04:01:38.544Z,11.77
2019-03-21T04:04:08.328Z,8.33
2019-03-21T04:06:37.957Z,9.60
2019-03-21T04:09:09.363Z,9.53
2019-03-21T04:11:39.298Z,8.77
2019-03-21T04:14:08.890Z,8.60
2019-03-21T04:16:38.507Z,11.90
2019-03-21T04:19:08.138Z,10.60
2019-03-21T04:21:37.818Z,12.00
2019-03-21T04:24:07.564Z,10.93
2019-03-21T04:26:37.765Z,10.93
2019-03-21T04:29:07.394Z,12.97
2019-03-21T04:31:36.996Z,10.23
2019-03-21T04:34:11.403Z,13.63
2019-03-21T04:36:40.994Z,7.27
2019-03-21T04:39:11.466Z,10.20
2019-03-21T04:41:44.501Z,9.03
2019-03-21T04:44:14.118Z,9.40
2019-03-21T04:46:43.716Z,11.57
2019-03-21T04:49:13.376Z,9.07
2019-03-21T04:51:43.061Z,9.37
2019-03-21T04:54:12.679Z,11.77
2019-03-21T04:56:42.309Z,10.83
2019-03-21T04:59:11.900Z,8.80
2019-03-21T05:01:41.514Z,8.20
2019-03-21T05:04:11.208Z,7.23
2019-03-21T05:06:40.840Z,13.70
2019-03-21T05:09:13.649Z,13.47
2019-03-21T05:11:43.249Z,13.57
2019-03-21T05:14:12.864Z,12.90
2019-03-21T05:16:42.451Z,9.47
2019-03-21T05:19:12.077Z,10.00
2019-03-21T05:21:41.676Z,27.73
2019-03-21T05:24:11.303Z,7.83
2019-03-21T05:26:40.912Z,9.83
2019-03-21T05:29:10.513Z,9.57
2019-03-21T05:31:40.144Z,13.77
2019-03-21T05:34:10.042Z,8.97
2019-03-21T05:36:39.682Z,8.40
2019-03-21T05:39:11.825Z,24.13
2019-03-21T05:41:41.450Z,9.83
2019-03-21T05:44:21.240Z,10.00
2019-03-21T05:46:50.931Z,8.80
2019-03-21T05:49:20.529Z,11.83
2019-03-21T05:51:50.161Z,11.27
2019-03-21T05:54:19.822Z,9.90
2019-03-21T05:56:49.414Z,9.70
2019-03-21T05:59:19.045Z,9.23
2019-03-21T06:01:48.627Z,9.03
2019-03-21T06:04:18.244Z,8.90
2019-03-21T06:07:08.993Z,8.67
2019-03-21T06:09:38.606Z,9.40
2019-03-21T06:12:09.046Z,15.10
2019-03-21T06:14:55.173Z,10.80
2019-03-21T06:17:24.903Z,17.87
2019-03-21T06:20:07.283Z,12.67
2019-03-21T06:22:49.702Z,17.17
2019-03-21T06:25:47.757Z,9.67
2019-03-21T06:28:17.346Z,12.07
2019-03-21T06:30:46.959Z,16.33
2019-03-21T06:33:16.545Z,20.60
2019-03-21T06:35:46.162Z,11.17
2019-03-21T06:38:15.753Z,16.13
2019-03-21T06:40:45.357Z,19.27
2019-03-21T06:43:14.989Z,19.47
2019-03-21T06:45:48.104Z,16.77
2019-03-21T06:48:15.952Z,24.53
2019-03-21T06:50:45.610Z,30.83
2019-03-21T06:53:15.218Z,17.60
2019-03-21T06:55:44.834Z,12.53
2019-03-21T06:58:15.382Z,11.80
2019-03-21T07:00:45.008Z,12.30
2019-03-21T07:03:16.399Z,17.77
2019-03-21T07:05:45.965Z,15.90
2019-03-21T07:08:15.627Z,17.80
2019-03-21T07:10:45.521Z,21.63
2019-03-21T07:13:15.177Z,17.53
2019-03-21T07:15:44.765Z,19.73
2019-03-21T07:18:14.378Z,11.70
2019-03-21T07:20:43.968Z,14.10
2019-03-21T07:23:13.582Z,14.13
2019-03-21T07:25:43.198Z,22.13
2019-03-21T07:28:13.332Z,11.43
2019-03-21T07:30:43.177Z,16.03
2019-03-21T07:33:12.772Z,10.40
2019-03-21T07:35:42.439Z,8.70
2019-03-21T07:38:12.038Z,12.00
2019-03-21T07:40:41.654Z,13.13
2019-03-21T07:43:11.242Z,9.93
2019-03-21T07:45:40.824Z,9.43
2019-03-21T07:48:10.447Z,8.60
2019-03-21T07:50:40.036Z,12.60
2019-03-21T07:53:09.657Z,9.77
2019-03-21T07:55:39.245Z,13.47
2019-03-21T07:58:09.005Z,8.67
2019-03-21T08:00:38.612Z,12.23
2019-03-21T08:03:08.207Z,14.97
2019-03-21T08:05:40.506Z,10.43
2019-03-21T08:08:09.139Z,9.70
2019-03-21T08:10:38.822Z,10.43
2019-03-21T08:13:08.417Z,11.00
2019-03-21T08:15:39.677Z,8.43
2019-03-21T08:18:09.289Z,7.53
2019-03-21T08:20:38.907Z,11.00
2019-03-21T08:23:08.637Z,11.33
2019-03-21T08:25:38.329Z,12.47
2019-03-21T08:28:07.918Z,11.67
2019-03-21T08:30:39.980Z,10.47
2019-03-21T08:33:09.614Z,13.93
2019-03-21T08:35:51.300Z,18.30
2019-03-21T08:38:20.945Z,13.20
2019-03-21T08:40:50.563Z,13.50
2019-03-21T08:43:20.178Z,9.70
2019-03-21T08:45:49.825Z,16.47
2019-03-21T08:48:19.450Z,13.13
2019-03-21T08:50:49.045Z,10.57
2019-03-21T08:53:18.673Z,10.00
2019-03-21T08:55:48.298Z,11.33
2019-03-21T08:58:18.007Z,11.63
2019-03-21T09:00:47.599Z,12.03
2019-03-21T09:03:17.219Z,10.67
2019-03-21T09:05:46.810Z,8.87
2019-03-21T09:08:16.426Z,12.53
2019-03-21T09:10:46.122Z,11.47
2019-03-21T09:13:15.716Z,13.77
2019-03-21T09:15:45.337Z,9.03
2019-03-21T09:18:14.959Z,10.20
2019-03-21T09:20:44.574Z,14.10
2019-03-21T09:23:14.198Z,9.03
2019-03-21T09:25:43.795Z,17.13
2019-03-21T09:28:14.348Z,9.33
2019-03-21T09:30:43.968Z,13.30
2019-03-21T09:33:13.596Z,15.37
2019-03-21T09:35:43.178Z,8.60
2019-03-21T09:38:12.784Z,10.53
2019-03-21T09:40:42.392Z,8.63
2019-03-21T09:43:12.017Z,13.70
2019-03-21T09:45:41.641Z,15.87
2019-03-21T09:48:11.246Z,11.63
2019-03-21T09:50:40.971Z,13.83
2019-03-21T09:53:10.590Z,8.70
2019-03-21T09:55:40.188Z,11.10
2019-03-21T09:58:09.826Z,11.03
2019-03-21T10:00:39.713Z,12.27
2019-03-21T10:03:09.391Z,10.80
2019-03-21T10:05:41.093Z,11.80
2019-03-21T10:08:10.679Z,12.00
2019-03-21T10:10:40.299Z,12.10
2019-03-21T10:13:09.936Z,10.83
2019-03-21T10:15:39.599Z,9.33
2019-03-21T10:18:09.225Z,11.63
2019-03-21T10:20:38.822Z,9.93
2019-03-21T10:23:08.441Z,8.37
2019-03-21T10:25:38.042Z,7.77
2019-03-21T10:28:07.727Z,8.57
2019-03-21T10:30:41.990Z,10.20
2019-03-21T10:33:13.625Z,12.50
2019-03-21T10:35:43.391Z,10.97
2019-03-21T10:38:13.054Z,12.60
2019-03-21T10:40:42.858Z,8.83
2019-03-21T10:43:12.473Z,9.33
2019-03-21T10:45:42.146Z,11.23
2019-03-21T10:48:11.770Z,13.40
2019-03-21T10:50:42.342Z,18.27
2019-03-21T10:53:12.014Z,8.93
2019-03-21T10:55:41.695Z,10.83
2019-03-21T10:58:11.493Z,13.70
2019-03-21T11:00:41.434Z,15.23
2019-03-21T11:03:11.162Z,9.17
2019-03-21T11:05:40.887Z,9.83
2019-03-21T11:08:10.581Z,12.63
2019-03-21T11:10:40.211Z,13.57
2019-03-21T11:13:09.860Z,8.20
2019-03-21T11:15:39.561Z,17.33
2019-03-21T11:18:09.161Z,12.13
2019-03-21T11:20:40.066Z,15.33
2019-03-21T11:23:09.962Z,9.33
2019-03-21T11:25:39.734Z,10.20
2019-03-21T11:28:09.470Z,7.07
2019-03-21T11:30:41.268Z,11.37
2019-03-21T11:33:11.030Z,11.17
2019-03-21T11:35:41.042Z,14.43
2019-03-21T11:38:10.804Z,12.70
2019-03-21T11:40:40.407Z,11.93
2019-03-21T11:43:10.706Z,12.80
2019-03-21T11:45:40.369Z,17.37
2019-03-21T11:48:09.995Z,14.30
2019-03-21T11:50:39.620Z,10.80
2019-03-21T11:53:09.293Z,14.40
2019-03-21T11:55:39.012Z,10.10
2019-03-21T11:58:08.604Z,10.73
2019-03-21T12:00:44.286Z,7.87
2019-03-21T12:03:09.538Z,8.93
2019-03-21T12:05:39.236Z,10.33
2019-03-21T12:08:08.832Z,10.30
2019-03-21T12:10:38.456Z,13.83
2019-03-21T12:13:08.076Z,9.00
2019-03-21T12:15:37.677Z,11.00
2019-03-21T12:18:07.364Z,9.93
2019-03-21T12:20:37.047Z,10.50
2019-03-21T12:23:06.880Z,11.10
2019-03-21T12:25:36.502Z,7.30
2019-03-21T12:28:06.368Z,12.03
2019-03-21T12:30:38.393Z,9.13
2019-03-21T12:33:08.127Z,10.87
2019-03-21T12:35:37.997Z,11.20
2019-03-21T12:38:08.031Z,10.83
2019-03-21T12:40:37.827Z,10.43
2019-03-21T12:43:07.621Z,11.60
2019-03-21T12:45:37.326Z,11.47
2019-03-21T12:48:07.202Z,10.23
2019-03-21T12:50:36.787Z,11.30
2019-03-21T12:53:06.680Z,9.63
2019-03-21T12:55:36.280Z,13.40
2019-03-21T12:58:06.039Z,12.03
2019-03-21T13:00:40.426Z,10.37
2019-03-21T13:03:10.185Z,11.83
2019-03-21T13:05:39.779Z,12.70
2019-03-21T13:08:09.477Z,8.70
2019-03-21T13:10:39.303Z,7.70
2019-03-21T13:13:09.072Z,14.00
2019-03-21T13:15:38.875Z,9.50
2019-03-21T13:18:08.815Z,11.60
2019-03-21T13:20:38.556Z,8.63
2019-03-21T13:23:08.488Z,15.10
2019-03-21T13:25:38.291Z,10.77
2019-03-21T13:28:08.046Z,8.40
2019-03-21T13:30:38.015Z,8.30
2019-03-21T13:33:07.824Z,7.93
2019-03-21T13:35:37.427Z,14.00
2019-03-21T13:38:07.182Z,10.80
2019-03-21T13:40:36.976Z,9.73
2019-03-21T13:43:06.635Z,9.67
2019-03-21T13:45:36.257Z,7.67
2019-03-21T13:48:06.289Z,10.83
2019-03-21T13:50:35.979Z,7.57
2019-03-21T13:53:17.803Z,13.70
2019-03-21T13:55:37.315Z,8.13
2019-03-21T13:58:07.074Z,8.83
2019-03-21T14:00:36.775Z,13.43
2019-03-21T14:03:06.429Z,10.03
2019-03-21T14:05:36.029Z,11.60
2019-03-21T14:08:05.653Z,13.43
2019-03-21T14:10:35.323Z,14.27
2019-03-21T14:13:04.949Z,14.57
2019-03-21T14:15:34.553Z,11.73
2019-03-21T14:18:04.339Z,13.13
2019-03-21T14:20:33.936Z,11.33
2019-03-21T14:23:03.560Z,13.33
2019-03-21T14:25:33.156Z,9.03
2019-03-21T14:28:02.849Z,10.10
2019-03-21T14:30:32.472Z,7.43
2019-03-21T14:33:02.069Z,11.87
2019-03-21T14:35:31.683Z,9.47
2019-03-21T14:38:01.302Z,8.03
2019-03-21T14:40:30.921Z,8.00
2019-03-21T14:43:00.550Z,9.43
2019-03-21T14:45:30.169Z,9.30
2019-03-21T14:47:59.767Z,12.83
2019-03-21T14:50:29.385Z,9.90
2019-03-21T14:52:59.007Z,7.93
2019-03-21T14:55:28.602Z,9.47
2019-03-21T14:57:58.229Z,13.33
2019-03-21T15:00:27.818Z,9.43
2019-03-21T15:02:57.438Z,8.47
2019-03-21T15:05:27.064Z,13.73
2019-03-21T15:07:56.660Z,9.50
2019-03-21T15:10:26.288Z,8.73
2019-03-21T15:12:55.884Z,10.67
2019-03-21T15:15:25.509Z,16.07
2019-03-21T15:17:55.104Z,10.80
2019-03-21T15:20:24.798Z,8.27
2019-03-21T15:22:56.912Z,10.40
2019-03-21T15:25:25.851Z,11.30
2019-03-21T15:27:55.787Z,11.73
2019-03-21T15:30:25.413Z,10.17
2019-03-21T15:32:55.040Z,15.27
2019-03-21T15:35:24.635Z,10.37
2019-03-21T15:37:54.327Z,12.07
2019-03-21T15:40:23.924Z,12.23
2019-03-21T15:42:53.542Z,12.87
2019-03-21T15:45:23.928Z,8.70
2019-03-21T15:47:53.851Z,10.37
2019-03-21T15:50:37.275Z,11.73
2019-03-21T15:53:07.283Z,12.93
2019-03-21T15:55:37.035Z,8.70
2019-03-21T15:58:06.802Z,13.90
2019-03-21T16:00:45.692Z,13.60
2019-03-21T16:03:15.454Z,9.00
2019-03-21T16:05:45.135Z,13.13
2019-03-21T16:08:14.771Z,18.03
2019-03-21T16:10:44.389Z,10.33
2019-03-21T16:13:13.987Z,15.10
2019-03-21T16:15:43.603Z,8.37
2019-03-21T16:18:13.197Z,13.93
2019-03-21T16:20:42.893Z,13.47
2019-03-21T16:23:12.492Z,13.23
2019-03-21T16:25:42.119Z,10.97
2019-03-21T16:28:11.715Z,12.57
2019-03-21T16:30:41.343Z,11.33
2019-03-21T16:33:10.939Z,11.33
2019-03-21T16:35:40.536Z,16.90
2019-03-21T16:38:10.228Z,12.30
2019-03-21T16:40:39.999Z,15.40
2019-03-21T16:43:09.595Z,18.03
2019-03-21T16:45:39.191Z,10.07
2019-03-21T16:48:09.419Z,18.77
2019-03-21T16:50:39.210Z,13.93
2019-03-21T16:53:08.895Z,15.23
2019-03-21T16:55:38.572Z,17.70
2019-03-21T16:58:08.202Z,15.10
2019-03-21T17:00:37.974Z,14.70
2019-03-21T17:03:07.596Z,16.17
2019-03-21T17:05:37.190Z,13.57
2019-03-21T17:08:11.531Z,20.10
2019-03-21T17:10:38.152Z,20.20
2019-03-21T17:13:07.850Z,28.40
2019-03-21T17:15:37.515Z,32.60
2019-03-21T17:18:07.225Z,35.70
2019-03-21T17:20:36.824Z,36.27
2019-03-21T17:23:06.692Z,45.90
2019-03-21T17:25:36.316Z,56.67
2019-03-21T17:28:05.971Z,24.57
2019-03-21T17:30:35.598Z,24.10
2019-03-21T17:33:05.349Z,28.57
2019-03-21T17:35:35.007Z,21.17
2019-03-21T17:38:04.768Z,25.27
2019-03-21T17:40:34.359Z,17.93
2019-03-21T17:43:04.030Z,21.07
2019-03-21T17:45:33.626Z,29.00
2019-03-21T17:48:03.300Z,38.47
2019-03-21T17:50:32.983Z,44.07
2019-03-21T17:53:02.712Z,30.23
2019-03-21T17:55:32.332Z,39.57
2019-03-21T17:58:01.930Z,34.30
2019-03-21T18:00:35.738Z,45.60
2019-03-21T18:03:06.470Z,32.10
2019-03-21T18:05:36.078Z,27.30
2019-03-21T18:08:05.704Z,33.70
2019-03-21T18:10:35.793Z,32.83
2019-03-21T18:13:06.223Z,33.60
2019-03-21T18:15:35.885Z,37.33
2019-03-21T18:18:05.963Z,33.77
2019-03-21T18:20:35.618Z,26.07
2019-03-21T18:23:05.475Z,30.43
2019-03-21T18:25:35.063Z,30.83
2019-03-21T18:28:04.795Z,25.97
2019-03-21T18:30:34.486Z,27.33
2019-03-21T18:33:04.149Z,25.07
2019-03-21T18:35:33.836Z,25.13
2019-03-21T18:38:03.629Z,22.10
2019-03-21T18:40:33.256Z,26.43
2019-03-21T18:43:02.835Z,19.83
2019-03-21T18:45:32.450Z,18.50
2019-03-21T18:48:02.064Z,22.67
2019-03-21T18:50:31.752Z,31.93
2019-03-21T18:53:01.359Z,18.63
2019-03-21T18:55:30.982Z,21.00
2019-03-21T18:58:00.569Z,20.27
2019-03-21T19:00:30.162Z,21.40
2019-03-21T19:03:00.741Z,25.90
2019-03-21T19:05:30.454Z,26.00
2019-03-21T19:08:00.075Z,31.20
2019-03-21T19:10:29.669Z,30.83
2019-03-21T19:12:59.286Z,26.23
2019-03-21T19:15:28.881Z,23.17
2019-03-21T19:17:58.470Z,20.27
2019-03-21T19:20:28.152Z,20.73
2019-03-21T19:22:57.738Z,22.23
2019-03-21T19:25:27.521Z,18.03
2019-03-21T19:27:57.109Z,17.27
2019-03-21T19:30:26.717Z,24.10
2019-03-21T19:32:56.329Z,25.87
2019-03-21T19:35:25.921Z,20.67
2019-03-21T19:37:55.540Z,17.40
2019-03-21T19:40:25.126Z,18.83
2019-03-21T19:42:54.738Z,24.53
2019-03-21T19:45:24.355Z,21.50
2019-03-21T19:47:53.977Z,21.37
2019-03-21T19:50:23.895Z,22.33
2019-03-21T19:52:53.510Z,26.80
2019-03-21T19:55:30.622Z,22.30
2019-03-21T19:57:54.439Z,18.23
2019-03-21T20:00:24.963Z,20.77
2019-03-21T20:02:54.690Z,23.97
2019-03-21T20:05:24.275Z,19.87
2019-03-21T20:07:53.889Z,22.67
2019-03-21T20:10:23.792Z,25.63
2019-03-21T20:12:53.336Z,25.20
2019-03-21T20:15:23.034Z,20.73
2019-03-21T20:17:52.719Z,20.00
2019-03-21T20:20:22.334Z,21.63
2019-03-21T20:22:51.950Z,23.10
2019-03-21T20:25:21.539Z,22.93
2019-03-21T20:27:51.171Z,25.27
2019-03-21T20:30:22.169Z,21.97
2019-03-21T20:32:51.929Z,21.20
2019-03-21T20:35:21.642Z,20.43
2019-03-21T20:37:51.322Z,21.17
2019-03-21T20:40:21.141Z,23.93
2019-03-21T20:42:50.758Z,24.57
2019-03-21T20:45:21.552Z,19.20
2019-03-21T20:47:51.197Z,23.00
2019-03-21T20:50:20.974Z,21.67
2019-03-21T20:52:50.588Z,16.53
2019-03-21T20:55:20.179Z,18.57
2019-03-21T20:57:49.793Z,22.90
2019-03-21T21:00:24.598Z,22.57
2019-03-21T21:02:55.614Z,19.40
2019-03-21T21:05:25.293Z,22.27
2019-03-21T21:07:54.883Z,18.43
2019-03-21T21:10:24.631Z,33.00
2019-03-21T21:12:54.222Z,19.03
2019-03-21T21:15:23.805Z,20.10
2019-03-21T21:17:53.615Z,19.07
2019-03-21T21:20:23.211Z,19.53
2019-03-21T21:22:52.854Z,19.00
2019-03-21T21:25:22.514Z,20.23
2019-03-21T21:27:52.185Z,19.40
2019-03-21T21:30:23.306Z,15.13
2019-03-21T21:32:52.981Z,18.00
2019-03-21T21:35:22.567Z,18.40
2019-03-21T21:37:52.194Z,15.63
2019-03-21T21:40:21.770Z,22.83
2019-03-21T21:42:51.399Z,16.83
2019-03-21T21:45:21.126Z,17.10
2019-03-21T21:47:50.724Z,17.67
2019-03-21T21:50:20.409Z,27.00
2019-03-21T21:52:50.025Z,19.73
2019-03-21T21:55:19.610Z,28.83
2019-03-21T21:57:49.293Z,20.00
2019-03-21T22:00:22.025Z,15.00
2019-03-21T22:02:51.815Z,17.47
2019-03-21T22:05:21.434Z,18.20
2019-03-21T22:07:51.020Z,20.27
2019-03-21T22:10:20.675Z,19.17
2019-03-21T22:12:50.364Z,15.73
2019-03-21T22:15:20.016Z,21.03
2019-03-21T22:17:49.647Z,20.30
2019-03-21T22:20:19.378Z,14.30
2019-03-21T22:22:48.994Z,19.60
2019-03-21T22:25:18.682Z,17.17
2019-03-21T22:27:48.358Z,14.80
2019-03-21T22:30:20.985Z,18.13
2019-03-21T22:32:50.604Z,15.17
2019-03-21T22:35:20.197Z,17.33
2019-03-21T22:37:49.818Z,18.63
2019-03-21T22:40:19.852Z,19.40
2019-03-21T22:42:49.581Z,16.27
2019-03-21T22:45:19.540Z,25.67
2019-03-21T22:47:50.563Z,20.57
2019-03-21T22:50:20.499Z,20.03
2019-03-21T22:52:50.110Z,19.17
2019-03-21T22:55:19.694Z,17.57
2019-03-21T22:57:49.302Z,15.77
2019-03-21T23:00:23.466Z,12.67
2019-03-21T23:02:53.054Z,12.83
2019-03-21T23:05:22.877Z,16.33
2019-03-21T23:07:52.473Z,14.57
2019-03-21T23:10:22.150Z,20.17
2019-03-21T23:12:51.738Z,13.17
2019-03-21T23:15:21.393Z,13.73
2019-03-21T23:17:51.014Z,13.43
2019-03-21T23:20:20.631Z,15.17
2019-03-21T23:22:50.224Z,14.30
2019-03-21T23:25:19.809Z,13.33
2019-03-21T23:27:49.497Z,15.53
2019-03-21T23:30:19.792Z,18.37
2019-03-21T23:32:49.407Z,16.87
2019-03-21T23:35:18.994Z,11.90
2019-03-21T23:37:48.681Z,16.63
2019-03-21T23:40:18.265Z,15.13
2019-03-21T23:42:47.878Z,19.50
2019-03-21T23:45:19.881Z,20.77
2019-03-21T23:47:48.889Z,15.43
2019-03-21T23:50:18.608Z,14.87
2019-03-21T23:52:48.253Z,13.43
2019-03-21T23:55:17.852Z,17.60
2019-03-21T23:57:47.547Z,13.00
